createdAt,value
2022-08-16T00:00:03.632Z,18.67
2022-08-16T00:02:33.419Z,18.62
2022-08-16T00:05:00.985Z,18.52
2022-08-16T00:07:29.656Z,18.28
2022-08-16T00:09:58.793Z,18.33
2022-08-16T00:12:28.324Z,18.11
2022-08-16T00:14:56.655Z,18.02
2022-08-16T00:17:25.172Z,18.21
2022-08-16T00:19:55.100Z,18.19
2022-08-16T00:22:25.029Z,17.97
2022-08-16T00:24:54.315Z,18.16
2022-08-16T00:27:22.210Z,18.11
2022-08-16T00:30:08.289Z,18.01
2022-08-16T00:32:36.363Z,17.90
2022-08-16T00:35:15.058Z,17.96
2022-08-16T00:37:58.820Z,17.91
2022-08-16T00:40:50.925Z,17.96
2022-08-16T00:43:24.187Z,17.97
2022-08-16T00:46:00.027Z,17.99
2022-08-16T00:48:31.599Z,17.99
2022-08-16T00:51:00.567Z,17.94
2022-08-16T00:53:30.684Z,17.97
2022-08-16T00:56:05.256Z,18.05
2022-08-16T00:58:35.356Z,17.94
2022-08-16T01:01:08.104Z,18.01
2022-08-16T01:03:37.480Z,17.95
2022-08-16T01:06:39.654Z,17.98
2022-08-16T01:08:59.938Z,17.93
2022-08-16T01:11:29.550Z,17.86
2022-08-16T01:14:13.719Z,17.79
2022-08-16T01:16:42.558Z,17.19
2022-08-16T01:19:35.785Z,17.23
2022-08-16T01:22:48.619Z,17.25
2022-08-16T01:25:40.327Z,17.29
2022-08-16T01:28:20.174Z,17.43
2022-08-16T01:30:55.366Z,17.56
2022-08-16T01:33:23.108Z,17.45
2022-08-16T01:35:57.379Z,17.56
2022-08-16T01:38:56.807Z,17.51
2022-08-16T01:41:30.818Z,17.58
2022-08-16T01:44:01.640Z,17.53
2022-08-16T01:46:41.207Z,17.60
2022-08-16T01:49:16.172Z,17.67
2022-08-16T01:51:50.341Z,17.57
2022-08-16T01:54:31.065Z,17.43
2022-08-16T01:56:59.639Z,17.51
2022-08-16T01:59:27.260Z,17.49
2022-08-16T02:01:59.633Z,17.50
2022-08-16T02:04:48.787Z,17.49
2022-08-16T02:07:23.642Z,17.62
2022-08-16T02:09:56.896Z,17.67
2022-08-16T02:12:50.570Z,17.55
2022-08-16T02:15:14.587Z,17.39
2022-08-16T02:17:41.901Z,17.27
2022-08-16T02:20:12.875Z,17.13
2022-08-16T02:22:40.026Z,17.06
2022-08-16T02:25:14.647Z,17.35
2022-08-16T02:27:44.412Z,17.20
2022-08-16T02:30:36.794Z,16.96
2022-08-16T02:33:05.650Z,16.58
2022-08-16T02:35:34.877Z,16.47
2022-08-16T02:38:21.178Z,16.47
2022-08-16T02:40:48.511Z,16.58
2022-08-16T02:43:15.579Z,16.56
2022-08-16T02:45:43.585Z,16.49
2022-08-16T02:48:29.772Z,16.52
2022-08-16T02:51:11.075Z,16.73
2022-08-16T02:53:46.486Z,16.72
2022-08-16T02:56:15.638Z,16.55
2022-08-16T02:58:45.359Z,16.59
2022-08-16T03:01:25.069Z,16.60
2022-08-16T03:04:40.629Z,16.68
2022-08-16T03:06:56.381Z,16.51
2022-08-16T03:09:44.173Z,16.67
2022-08-16T03:12:16.605Z,16.73
2022-08-16T03:14:45.825Z,16.73
2022-08-16T03:17:13.193Z,16.65
2022-08-16T03:19:48.410Z,16.62
2022-08-16T03:22:29.096Z,16.55
2022-08-16T03:25:07.614Z,16.68
2022-08-16T03:27:39.066Z,16.66
2022-08-16T03:30:31.746Z,16.56
2022-08-16T03:33:02.480Z,16.38
2022-08-16T03:35:40.756Z,16.32
2022-08-16T03:38:33.866Z,16.28
2022-08-16T03:41:14.462Z,16.23
2022-08-16T03:43:52.392Z,16.36
2022-08-16T03:46:47.311Z,16.10
2022-08-16T03:49:12.562Z,15.97
2022-08-16T03:51:42.709Z,15.89
2022-08-16T03:54:13.227Z,16.05
2022-08-16T03:56:57.920Z,16.11
2022-08-16T03:59:30.120Z,16.21
2022-08-16T04:02:01.083Z,16.20
2022-08-16T04:04:32.676Z,16.23
2022-08-16T04:07:02.923Z,16.32
2022-08-16T04:09:35.259Z,16.31
2022-08-16T04:12:10.432Z,16.39
2022-08-16T04:14:46.680Z,16.47
2022-08-16T04:17:16.256Z,16.52
2022-08-16T04:19:47.512Z,16.57
2022-08-16T04:22:19.646Z,16.29
2022-08-16T04:24:55.137Z,16.30
2022-08-16T04:27:28.735Z,16.07
2022-08-16T04:30:03.014Z,15.91
2022-08-16T04:32:32.521Z,15.71
2022-08-16T04:35:02.271Z,15.68
2022-08-16T04:37:42.335Z,15.83
2022-08-16T04:40:29.522Z,15.99
2022-08-16T04:43:00.679Z,16.06
2022-08-16T04:45:36.038Z,16.21
2022-08-16T04:48:06.802Z,16.40
2022-08-16T04:50:43.616Z,16.43
2022-08-16T04:53:15.793Z,16.35
2022-08-16T04:55:44.699Z,16.37
2022-08-16T04:58:45.044Z,16.08
2022-08-16T05:01:01.006Z,16.01
2022-08-16T05:03:29.983Z,16.11
2022-08-16T05:06:02.184Z,16.19
2022-08-16T05:08:32.662Z,16.21
2022-08-16T05:11:15.581Z,16.32
2022-08-16T05:13:47.317Z,16.37
2022-08-16T05:16:27.686Z,16.43
2022-08-16T05:19:05.045Z,16.53
2022-08-16T05:21:40.601Z,16.65
2022-08-16T05:24:10.248Z,16.71
2022-08-16T05:26:43.120Z,16.83
2022-08-16T05:29:14.677Z,16.89
2022-08-16T05:31:53.280Z,16.93
2022-08-16T05:34:22.300Z,16.96
2022-08-16T05:36:53.094Z,17.06
2022-08-16T05:39:26.403Z,17.15
2022-08-16T05:41:55.138Z,17.16
2022-08-16T05:44:25.006Z,17.20
2022-08-16T05:47:00.029Z,17.25
2022-08-16T05:49:38.219Z,17.29
2022-08-16T05:52:11.302Z,17.36
2022-08-16T05:54:46.650Z,17.43
2022-08-16T05:57:17.320Z,17.43
2022-08-16T05:59:47.358Z,17.52
2022-08-16T06:02:18.649Z,17.62
2022-08-16T06:04:46.224Z,17.74
2022-08-16T06:07:24.837Z,17.73
2022-08-16T06:10:09.656Z,17.74
2022-08-16T06:12:37.239Z,17.88
2022-08-16T06:15:15.081Z,18.04
2022-08-16T06:17:44.644Z,18.23
2022-08-16T06:20:24.141Z,18.27
2022-08-16T06:22:59.063Z,18.44
2022-08-16T06:25:40.682Z,18.53
2022-08-16T06:28:17.075Z,18.59
2022-08-16T06:30:57.647Z,18.67
2022-08-16T06:33:24.726Z,18.80
2022-08-16T06:35:55.318Z,18.94
2022-08-16T06:38:33.908Z,19.04
2022-08-16T06:41:13.524Z,19.27
2022-08-16T06:43:41.900Z,19.21
2022-08-16T06:46:31.626Z,19.55
2022-08-16T06:49:01.689Z,19.57
2022-08-16T06:51:46.866Z,19.80
2022-08-16T06:54:19.797Z,19.90
2022-08-16T06:56:46.482Z,20.26
2022-08-16T06:59:14.795Z,20.75
2022-08-16T07:01:54.666Z,20.68
2022-08-16T07:04:33.084Z,20.74
2022-08-16T07:07:11.849Z,20.54
2022-08-16T07:09:41.655Z,20.77
2022-08-16T07:12:08.741Z,21.95
2022-08-16T07:14:39.717Z,21.93
2022-08-16T07:17:11.408Z,22.25
2022-08-16T07:20:29.319Z,22.00
2022-08-16T07:22:52.910Z,23.34
2022-08-16T07:25:34.357Z,23.01
2022-08-16T07:28:07.084Z,23.53
2022-08-16T07:30:46.402Z,23.54
2022-08-16T07:33:52.107Z,23.59
2022-08-16T07:36:25.484Z,23.41
2022-08-16T07:38:53.018Z,22.96
2022-08-16T07:41:21.042Z,24.37
2022-08-16T07:43:53.044Z,24.04
2022-08-16T07:46:38.948Z,24.82
2022-08-16T07:49:18.733Z,24.51
2022-08-16T07:51:46.408Z,24.99
2022-08-16T07:54:20.858Z,25.61
2022-08-16T07:56:52.383Z,24.88
2022-08-16T07:59:20.242Z,26.06
2022-08-16T08:01:47.678Z,26.63
2022-08-16T08:04:20.219Z,25.93
2022-08-16T08:06:47.015Z,25.66
2022-08-16T08:09:18.145Z,25.38
2022-08-16T08:12:00.686Z,24.03
2022-08-16T08:14:32.817Z,24.86
2022-08-16T08:17:01.868Z,25.67
2022-08-16T08:19:31.010Z,27.04
2022-08-16T08:21:59.259Z,27.30
2022-08-16T08:24:58.977Z,27.76
2022-08-16T08:27:27.670Z,25.63
2022-08-16T08:30:50.537Z,26.95
2022-08-16T08:32:59.557Z,27.97
2022-08-16T08:35:29.617Z,27.05
2022-08-16T08:37:58.783Z,28.15
2022-08-16T08:40:29.193Z,28.00
2022-08-16T08:43:00.836Z,28.62
2022-08-16T08:45:48.704Z,26.50
2022-08-16T08:48:35.104Z,28.00
2022-08-16T08:51:08.737Z,27.96
2022-08-16T08:53:40.297Z,27.65
2022-08-16T08:56:23.753Z,27.96
2022-08-16T08:59:03.114Z,28.27
2022-08-16T09:01:42.876Z,28.34
2022-08-16T09:04:14.811Z,28.09
2022-08-16T09:06:44.885Z,28.61
2022-08-16T09:09:17.012Z,28.58
2022-08-16T09:11:53.707Z,29.59
2022-08-16T09:14:32.469Z,27.77
2022-08-16T09:17:03.742Z,28.60
2022-08-16T09:19:40.900Z,28.41
2022-08-16T09:22:20.014Z,29.71
2022-08-16T09:24:52.949Z,29.27
2022-08-16T09:27:23.365Z,29.13
2022-08-16T09:30:00.041Z,29.47
2022-08-16T09:32:31.071Z,29.41
2022-08-16T09:34:59.839Z,29.73
2022-08-16T09:37:36.485Z,30.03
2022-08-16T09:40:31.823Z,30.88
2022-08-16T09:42:59.170Z,29.74
2022-08-16T09:45:28.639Z,30.73
2022-08-16T09:47:57.643Z,30.84
2022-08-16T09:50:37.255Z,30.09
2022-08-16T09:53:19.667Z,30.09
2022-08-16T09:55:52.413Z,30.81
2022-08-16T09:58:40.470Z,30.14
2022-08-16T10:01:08.325Z,30.54
2022-08-16T10:03:35.402Z,30.15
2022-08-16T10:06:02.079Z,31.38
2022-08-16T10:08:28.657Z,31.94
2022-08-16T10:11:13.725Z,31.44
2022-08-16T10:13:43.841Z,31.63
2022-08-16T10:19:06.338Z,31.96
2022-08-16T10:21:29.711Z,31.69
2022-08-16T10:23:58.801Z,31.95
2022-08-16T10:27:19.014Z,31.44
2022-08-16T10:29:13.361Z,31.45
2022-08-16T10:31:53.796Z,29.54
2022-08-16T10:34:31.637Z,29.74
2022-08-16T10:37:00.726Z,30.43
2022-08-16T10:39:40.573Z,31.25
2022-08-16T10:42:09.624Z,32.25
2022-08-16T10:44:36.530Z,31.62
2022-08-16T10:47:04.157Z,30.68
2022-08-16T10:49:32.119Z,31.82
2022-08-16T10:52:02.920Z,32.31
2022-08-16T10:55:40.327Z,31.55
2022-08-16T10:57:33.118Z,32.95
2022-08-16T11:00:01.339Z,30.96
2022-08-16T11:02:58.163Z,31.68
2022-08-16T11:05:17.315Z,32.58
2022-08-16T11:07:53.343Z,30.18
2022-08-16T11:13:58.337Z,30.24
2022-08-16T11:19:06.363Z,30.95
2022-08-16T11:24:41.558Z,33.54
2022-08-16T11:27:23.191Z,32.75
2022-08-16T11:29:53.358Z,31.74
2022-08-16T11:32:31.260Z,32.48
2022-08-16T11:35:11.199Z,32.49
2022-08-16T11:38:46.512Z,32.44
2022-08-16T11:40:47.047Z,32.23
2022-08-16T11:43:23.073Z,32.47
2022-08-16T11:45:54.135Z,31.82
2022-08-16T11:48:26.581Z,31.80
2022-08-16T11:50:54.003Z,33.18
2022-08-16T11:53:21.989Z,32.07
2022-08-16T11:55:50.603Z,32.98
2022-08-16T11:58:23.602Z,33.49
2022-08-16T12:00:53.360Z,32.95
2022-08-16T12:03:34.894Z,32.04
2022-08-16T12:06:10.932Z,31.09
2022-08-16T12:08:53.178Z,30.94
2022-08-16T12:11:19.827Z,30.37
2022-08-16T12:13:49.780Z,30.73
2022-08-16T12:16:20.587Z,31.57
2022-08-16T12:21:35.816Z,31.54
2022-08-16T12:24:23.819Z,31.63
2022-08-16T12:26:51.247Z,31.28
2022-08-16T12:29:17.928Z,30.99
2022-08-16T12:32:01.451Z,31.84
2022-08-16T12:34:31.269Z,30.79
2022-08-16T12:37:02.547Z,30.74
2022-08-16T12:39:29.642Z,30.62
2022-08-16T12:41:57.617Z,30.92
2022-08-16T12:44:26.043Z,30.99
2022-08-16T12:47:11.666Z,28.99
2022-08-16T12:49:41.786Z,28.64
2022-08-16T12:52:09.381Z,29.08
2022-08-16T12:54:58.026Z,30.42
2022-08-16T12:57:25.588Z,31.11
2022-08-16T13:00:07.723Z,31.48
2022-08-16T13:02:36.578Z,31.36
2022-08-16T13:05:04.453Z,32.04
2022-08-16T13:07:42.553Z,30.66
2022-08-16T13:10:21.459Z,31.05
2022-08-16T13:13:01.832Z,31.00
2022-08-16T13:15:30.687Z,31.46
2022-08-16T13:17:58.785Z,30.61
2022-08-16T13:20:29.102Z,30.88
2022-08-16T13:23:03.907Z,30.78
2022-08-16T13:25:33.139Z,30.40
2022-08-16T13:28:02.050Z,31.66
2022-08-16T13:30:37.668Z,32.03
2022-08-16T13:33:14.785Z,29.99
2022-08-16T13:35:46.563Z,32.07
2022-08-16T13:38:31.327Z,31.44
2022-08-16T13:41:05.930Z,31.69
2022-08-16T13:43:37.243Z,30.33
2022-08-16T13:46:04.336Z,30.29
2022-08-16T13:48:42.498Z,30.28
2022-08-16T13:51:17.564Z,30.90
2022-08-16T13:53:49.706Z,30.35
2022-08-16T13:56:25.164Z,31.02
2022-08-16T13:58:54.339Z,31.65
2022-08-16T14:01:22.450Z,31.43
2022-08-16T14:03:49.600Z,31.67
2022-08-16T14:06:21.633Z,30.92
2022-08-16T14:08:59.017Z,31.21
2022-08-16T14:11:33.579Z,31.68
2022-08-16T14:14:00.352Z,32.75
2022-08-16T14:16:33.722Z,32.59
2022-08-16T14:19:02.193Z,31.85
2022-08-16T14:21:35.455Z,31.23
2022-08-16T14:24:12.889Z,32.46
2022-08-16T14:26:50.487Z,32.05
2022-08-16T14:32:06.847Z,33.11
2022-08-16T14:34:33.407Z,33.07
2022-08-16T14:37:00.585Z,32.47
2022-08-16T14:39:27.296Z,32.29
2022-08-16T14:41:55.804Z,32.14
2022-08-16T14:44:24.286Z,32.07
2022-08-16T14:46:52.974Z,32.79
2022-08-16T14:49:19.912Z,31.64
2022-08-16T14:51:48.857Z,32.09
2022-08-16T14:54:15.868Z,31.84
2022-08-16T14:56:54.539Z,32.62
2022-08-16T14:59:22.878Z,31.38
2022-08-16T15:01:59.532Z,31.54
2022-08-16T15:04:39.555Z,30.68
2022-08-16T15:07:12.691Z,31.88
2022-08-16T15:10:00.450Z,31.86
2022-08-16T15:12:31.242Z,31.33
2022-08-16T15:15:01.699Z,31.62
2022-08-16T15:17:33.884Z,31.35
2022-08-16T15:20:08.791Z,31.45
2022-08-16T15:22:41.805Z,31.18
2022-08-16T15:25:12.930Z,31.62
2022-08-16T15:27:42.237Z,31.70
2022-08-16T15:30:59.371Z,31.58
2022-08-16T15:33:18.275Z,32.27
2022-08-16T15:35:50.134Z,31.31
2022-08-16T15:38:57.829Z,30.52
2022-08-16T15:41:03.818Z,30.95
2022-08-16T15:43:39.033Z,31.05
2022-08-16T15:46:34.498Z,30.31
2022-08-16T15:49:03.504Z,30.45
2022-08-16T15:51:31.387Z,30.59
2022-08-16T15:54:29.265Z,30.68
2022-08-16T15:56:44.823Z,30.79
2022-08-16T15:59:13.378Z,30.99
2022-08-16T16:01:40.404Z,31.08
2022-08-16T16:04:08.077Z,31.25
2022-08-16T16:06:34.780Z,31.02
2022-08-16T16:09:01.445Z,31.18
2022-08-16T16:11:28.131Z,31.25
2022-08-16T16:13:57.837Z,31.27
2022-08-16T16:16:24.670Z,30.96
2022-08-16T16:18:52.146Z,30.10
2022-08-16T16:21:20.358Z,29.94
2022-08-16T16:23:54.923Z,30.28
2022-08-16T16:26:26.856Z,30.74
2022-08-16T16:29:08.604Z,30.56
2022-08-16T16:31:42.188Z,29.92
2022-08-16T16:34:11.553Z,29.93
2022-08-16T16:36:39.983Z,29.77
2022-08-16T16:39:10.816Z,29.65
2022-08-16T16:41:40.576Z,29.64
2022-08-16T16:44:08.895Z,29.68
2022-08-16T16:46:42.864Z,29.57
2022-08-16T16:49:11.905Z,29.62
2022-08-16T16:51:44.507Z,29.70
2022-08-16T16:54:27.722Z,29.43
2022-08-16T16:56:56.478Z,29.08
2022-08-16T16:59:25.576Z,28.94
2022-08-16T17:01:59.285Z,28.97
2022-08-16T17:04:32.368Z,28.93
2022-08-16T17:07:01.686Z,28.63
2022-08-16T17:09:29.508Z,28.73
2022-08-16T17:11:56.983Z,28.72
2022-08-16T17:14:32.849Z,28.49
2022-08-16T17:17:02.358Z,28.50
2022-08-16T17:19:31.380Z,28.46
2022-08-16T17:21:59.452Z,28.36
2022-08-16T17:24:31.234Z,28.23
2022-08-16T17:27:08.263Z,28.06
2022-08-16T17:29:35.417Z,28.11
2022-08-16T17:32:33.538Z,27.94
2022-08-16T17:35:08.583Z,27.82
2022-08-16T17:37:48.715Z,27.79
2022-08-16T17:40:41.069Z,27.67
2022-08-16T17:43:18.650Z,27.61
2022-08-16T17:45:46.129Z,27.56
2022-08-16T17:48:13.247Z,27.47
2022-08-16T17:50:40.968Z,27.30
2022-08-16T17:53:08.844Z,27.29
2022-08-16T17:55:38.363Z,27.34
2022-08-16T17:58:21.297Z,27.22
2022-08-16T18:00:52.306Z,26.97
2022-08-16T18:04:08.300Z,26.92
2022-08-16T18:06:27.723Z,26.88
2022-08-16T18:09:02.611Z,26.74
2022-08-16T18:11:33.868Z,26.54
2022-08-16T18:14:01.099Z,26.46
2022-08-16T18:16:27.752Z,26.31
2022-08-16T18:18:54.441Z,26.31
2022-08-16T18:21:40.450Z,26.12
2022-08-16T18:24:07.613Z,25.92
2022-08-16T18:26:34.261Z,25.83
2022-08-16T18:29:01.363Z,25.78
2022-08-16T18:31:28.080Z,25.77
2022-08-16T18:33:56.017Z,25.76
2022-08-16T18:36:24.048Z,25.56
2022-08-16T18:38:51.960Z,25.51
2022-08-16T18:41:20.450Z,25.27
2022-08-16T18:43:59.217Z,25.17
2022-08-16T18:46:34.030Z,25.05
2022-08-16T18:49:00.671Z,24.91
2022-08-16T18:51:27.305Z,24.80
2022-08-16T18:53:54.650Z,24.68
2022-08-16T18:56:21.296Z,24.55
2022-08-16T18:58:48.796Z,24.61
2022-08-16T19:01:15.479Z,24.54
2022-08-16T19:03:42.356Z,24.33
2022-08-16T19:06:13.750Z,24.28
2022-08-16T19:08:44.762Z,24.27
2022-08-16T19:11:18.930Z,24.13
2022-08-16T19:13:46.156Z,24.07
2022-08-16T19:16:14.275Z,24.07
2022-08-16T19:18:41.922Z,23.88
2022-08-16T19:21:14.507Z,23.88
2022-08-16T19:23:42.681Z,23.79
2022-08-16T19:26:24.544Z,23.70
2022-08-16T19:28:58.547Z,23.60
2022-08-16T19:31:32.049Z,23.52
2022-08-16T19:33:59.641Z,23.55
2022-08-16T19:36:33.953Z,23.40
2022-08-16T19:39:07.213Z,23.32
2022-08-16T19:41:38.112Z,23.29
2022-08-16T19:44:06.362Z,23.29
2022-08-16T19:46:33.455Z,23.43
2022-08-16T19:49:00.274Z,23.41
2022-08-16T19:51:27.257Z,23.36
2022-08-16T19:53:53.855Z,23.48
2022-08-16T19:56:22.392Z,23.29
2022-08-16T19:59:16.329Z,23.18
2022-08-16T20:01:41.144Z,23.15
2022-08-16T20:04:12.098Z,23.23
2022-08-16T20:06:39.567Z,23.14
2022-08-16T20:09:06.811Z,23.06
2022-08-16T20:11:34.962Z,23.20
2022-08-16T20:14:02.673Z,23.10
2022-08-16T20:16:29.782Z,23.13
2022-08-16T20:18:56.364Z,23.08
2022-08-16T20:21:23.002Z,23.00
2022-08-16T20:23:49.702Z,22.90
2022-08-16T20:26:16.349Z,22.83
2022-08-16T20:28:53.993Z,22.78
2022-08-16T20:31:25.186Z,22.71
2022-08-16T20:33:53.101Z,22.63
2022-08-16T20:36:19.800Z,22.42
2022-08-16T20:38:47.886Z,22.31
2022-08-16T20:41:16.181Z,22.22
2022-08-16T20:43:43.798Z,22.26
2022-08-16T20:46:12.607Z,22.29
2022-08-16T20:48:39.331Z,22.29
2022-08-16T20:51:06.885Z,22.34
2022-08-16T20:53:34.071Z,22.28
2022-08-16T20:56:00.744Z,22.18
2022-08-16T20:58:27.330Z,22.18
2022-08-16T21:00:54.112Z,22.15
2022-08-16T21:03:20.815Z,22.18
2022-08-16T21:05:47.443Z,22.17
2022-08-16T21:08:34.453Z,22.10
2022-08-16T21:11:03.765Z,22.06
2022-08-16T21:13:31.322Z,21.96
2022-08-16T21:15:59.441Z,21.93
2022-08-16T21:18:27.000Z,21.91
2022-08-16T21:20:53.874Z,21.90
2022-08-16T21:23:20.959Z,21.77
2022-08-16T21:25:58.727Z,21.74
2022-08-16T21:28:42.830Z,21.79
2022-08-16T21:31:11.722Z,21.80
2022-08-16T21:33:38.766Z,21.74
2022-08-16T21:36:05.847Z,21.69
2022-08-16T21:38:32.627Z,21.58
2022-08-16T21:41:00.345Z,21.55
2022-08-16T21:43:31.845Z,21.53
2022-08-16T21:46:03.586Z,21.47
2022-08-16T21:48:34.735Z,21.46
2022-08-16T21:51:06.665Z,21.41
2022-08-16T21:53:33.409Z,21.31
2022-08-16T21:56:01.179Z,21.07
2022-08-16T21:58:28.824Z,21.12
2022-08-16T22:00:55.581Z,21.06
2022-08-16T22:03:23.534Z,21.02
2022-08-16T22:06:10.100Z,21.01
2022-08-16T22:08:48.055Z,20.92
2022-08-16T22:11:22.283Z,20.94
2022-08-16T22:13:58.137Z,20.76
2022-08-16T22:16:28.650Z,20.81
2022-08-16T22:18:55.271Z,20.78
2022-08-16T22:21:21.916Z,20.62
2022-08-16T22:23:56.498Z,20.63
2022-08-16T22:26:31.060Z,20.63
2022-08-16T22:29:00.185Z,20.55
2022-08-16T22:31:27.467Z,20.55
2022-08-16T22:33:54.143Z,20.57
2022-08-16T22:36:20.754Z,20.54
2022-08-16T22:38:56.557Z,20.49
2022-08-16T22:41:25.176Z,20.47
2022-08-16T22:43:52.294Z,20.32
2022-08-16T22:46:19.651Z,20.20
2022-08-16T22:48:50.095Z,20.26
2022-08-16T22:51:17.562Z,20.25
2022-08-16T22:53:44.281Z,20.33
2022-08-16T22:56:10.985Z,20.35
2022-08-16T22:58:37.579Z,20.34
2022-08-16T23:01:06.732Z,20.28
2022-08-16T23:03:33.738Z,20.24
2022-08-16T23:06:00.862Z,20.24
2022-08-16T23:08:38.539Z,20.16
2022-08-16T23:11:09.120Z,20.22
2022-08-16T23:13:35.838Z,20.22
2022-08-16T23:16:10.510Z,20.21
2022-08-16T23:18:39.323Z,20.21
2022-08-16T23:21:09.945Z,20.19
2022-08-16T23:23:37.362Z,20.08
2022-08-16T23:26:46.980Z,20.17
2022-08-16T23:28:52.086Z,20.14
2022-08-16T23:31:19.327Z,20.15
2022-08-16T23:33:46.681Z,20.07
2022-08-16T23:36:13.454Z,19.90
2022-08-16T23:38:40.365Z,19.92
2022-08-16T23:41:11.639Z,19.85
2022-08-16T23:43:43.560Z,19.86
2022-08-16T23:46:15.096Z,19.77
2022-08-16T23:49:57.197Z,20.05
2022-08-16T23:51:29.034Z,19.92
2022-08-16T23:53:55.789Z,19.85
2022-08-16T23:56:22.583Z,19.91
2022-08-16T23:58:54.318Z,19.96
